Time;durP1;ratioP1;P1;durP2;ratioP2;P2;SDS_P1;SDS_P2;PMS_P1;PMS_P2;Temp;Humidity;BMP_temperature;BMP_pressure;BME280_temperature;BME280_humidity;BME280_pressure;Samples;Min_cycle;Max_cycle;Signal;HPM_P1;HPM_P2
2022/12/09 00:01:25;;;;;;;50.90;25.90;;;2.50;99.90;;;;;;5036784;28;20037;-73
2022/12/09 00:03:50;;;;;;;47.22;25.27;;;2.50;99.90;;;;;;5034013;28;20033;-72
2022/12/09 00:06:34;;;;;;;45.92;25.02;;;2.60;99.90;;;;;;5034432;28;20030;-74
2022/12/09 00:09:00;;;;;;;47.67;24.00;;;2.50;99.90;;;;;;5034783;28;20040;-73
2022/12/09 00:11:26;;;;;;;45.33;24.70;;;2.50;99.90;;;;;;5033732;28;20505;-73
2022/12/09 00:13:53;;;;;;;46.88;24.67;;;2.50;99.90;;;;;;5033715;28;20032;-72
2022/12/09 00:16:20;;;;;;;40.60;20.77;;;2.50;99.90;;;;;;5020113;28;20508;-73
2022/12/09 00:18:46;;;;;;;50.35;22.98;;;2.50;99.90;;;;;;5032584;28;20129;-73
2022/12/09 00:21:19;;;;;;;38.42;22.45;;;2.50;99.90;;;;;;5033352;28;20048;-73
2022/12/09 00:23:45;;;;;;;48.47;22.15;;;2.40;99.90;;;;;;5032684;28;20053;-73
2022/12/09 00:26:12;;;;;;;43.15;21.73;;;2.40;99.90;;;;;;5033047;28;20037;-73
2022/12/09 00:28:38;;;;;;;44.70;21.98;;;2.30;99.90;;;;;;5032699;28;20031;-72
2022/12/09 00:31:05;;;;;;;50.13;24.02;;;2.40;99.90;;;;;;5032421;28;20049;-73
2022/12/09 00:33:31;;;;;;;46.20;22.58;;;2.30;99.90;;;;;;5033255;28;20025;-74
2022/12/09 00:36:08;;;;;;;52.22;23.70;;;2.30;99.90;;;;;;5033057;28;20029;-73
2022/12/09 00:38:34;;;;;;;51.40;23.02;;;2.30;99.90;;;;;;5032723;28;20104;-74
2022/12/09 00:41:00;;;;;;;56.88;24.30;;;2.30;99.90;;;;;;5032516;28;20116;-73
2022/12/09 00:43:26;;;;;;;42.35;21.55;;;2.30;99.90;;;;;;5033266;28;20095;-73
2022/12/09 00:45:51;;;;;;;36.42;20.30;;;2.30;99.90;;;;;;5032043;28;20056;-72
2022/12/09 00:48:17;;;;;;;45.00;21.83;;;2.30;99.90;;;;;;5034407;28;20049;-72
2022/12/09 00:50:44;;;;;;;47.13;21.50;;;2.30;99.90;;;;;;5033372;28;20033;-73
2022/12/09 00:53:09;;;;;;;42.63;20.90;;;2.30;99.90;;;;;;5031514;28;20060;-73
2022/12/09 00:55:35;;;;;;;47.80;22.88;;;2.30;99.90;;;;;;5037974;28;20033;-74
2022/12/09 00:58:01;;;;;;;41.03;20.02;;;2.30;99.90;;;;;;5032495;28;20550;-74
2022/12/09 01:00:26;;;;;;;45.20;22.13;;;2.30;99.90;;;;;;5033220;28;20040;-73
2022/12/09 01:02:52;;;;;;;44.33;20.92;;;2.30;99.90;;;;;;5032813;28;20025;-73
2022/12/09 01:05:19;;;;;;;43.30;22.27;;;2.30;99.90;;;;;;5031830;28;20032;-74
2022/12/09 01:07:44;;;;;;;44.88;21.33;;;2.30;99.90;;;;;;5032591;28;20068;-73
2022/12/09 01:10:10;;;;;;;42.15;20.45;;;2.30;99.90;;;;;;5032162;28;20053;-74
2022/12/09 01:12:36;;;;;;;46.33;22.52;;;2.40;99.90;;;;;;5021821;28;20026;-74
2022/12/09 01:15:02;;;;;;;52.60;23.05;;;2.30;99.90;;;;;;5028816;28;20037;-73
2022/12/09 01:17:27;;;;;;;41.38;19.92;;;2.30;99.90;;;;;;5032833;28;20378;-74
2022/12/09 01:19:53;;;;;;;41.17;20.02;;;2.30;99.90;;;;;;5031904;28;20037;-73
2022/12/09 01:22:18;;;;;;;43.55;20.73;;;2.30;99.90;;;;;;5032838;28;20021;-73
2022/12/09 01:24:44;;;;;;;42.08;20.63;;;2.30;99.90;;;;;;5032647;28;20026;-73
2022/12/09 01:27:09;;;;;;;44.60;21.50;;;2.30;99.90;;;;;;5031739;28;20024;-73
2022/12/09 01:29:35;;;;;;;41.17;18.92;;;2.30;99.90;;;;;;5032523;28;20129;-72
2022/12/09 01:32:01;;;;;;;36.20;18.83;;;2.30;99.90;;;;;;5031702;28;20028;-73
2022/12/09 01:34:26;;;;;;;40.47;20.13;;;2.30;99.90;;;;;;5032120;28;20080;-73
2022/12/09 01:36:52;;;;;;;36.35;18.73;;;2.30;99.90;;;;;;5032209;28;20363;-73
2022/12/09 01:39:17;;;;;;;41.30;19.55;;;2.30;99.90;;;;;;5032568;28;20065;-74
2022/12/09 01:41:44;;;;;;;38.40;19.05;;;2.40;99.90;;;;;;5031611;28;20453;-73
2022/12/09 01:44:19;;;;;;;31.02;17.55;;;2.40;99.90;;;;;;5033846;28;20044;-73
2022/12/09 01:46:46;;;;;;;44.35;20.38;;;2.40;99.90;;;;;;5036252;28;20465;-73
2022/12/09 01:49:41;;;;;;;34.88;18.05;;;2.40;99.90;;;;;;5035275;28;20485;-74
2022/12/09 01:52:12;;;;;;;30.33;17.52;;;2.40;99.90;;;;;;5025789;28;20477;-74
2022/12/09 01:54:40;;;;;;;29.42;16.65;;;2.40;99.90;;;;;;5035264;28;20038;-73
2022/12/09 01:57:06;;;;;;;32.60;18.15;;;2.40;99.90;;;;;;5035965;28;20013;-74
2022/12/09 01:59:32;;;;;;;39.38;19.08;;;2.40;99.90;;;;;;5035705;28;20037;-73
2022/12/09 02:02:01;;;;;;;42.83;21.05;;;2.40;99.90;;;;;;5035141;28;20021;-73
2022/12/09 02:04:30;;;;;;;41.50;21.73;;;2.40;99.90;;;;;;5036099;28;20452;-73
2022/12/09 02:06:59;;;;;;;42.17;21.17;;;2.40;99.90;;;;;;5035248;28;20362;-74
2022/12/09 02:09:24;;;;;;;39.70;20.73;;;2.40;99.90;;;;;;5035251;28;20048;-73
2022/12/09 02:12:09;;;;;;;41.42;20.90;;;2.40;99.90;;;;;;5031219;28;20034;-73
2022/12/09 02:14:38;;;;;;;35.67;18.98;;;2.40;99.90;;;;;;5028585;28;20571;-73
2022/12/09 02:17:23;;;;;;;31.97;17.70;;;2.40;99.90;;;;;;5034743;28;20445;-74
2022/12/09 02:20:00;;;;;;;32.47;18.17;;;2.40;99.90;;;;;;5035582;28;20037;-73
2022/12/09 02:22:31;;;;;;;32.70;17.90;;;2.40;99.90;;;;;;5022885;28;20539;-73
2022/12/09 02:25:11;;;;;;;32.03;17.38;;;2.30;99.90;;;;;;5036639;28;20052;-74
2022/12/09 02:27:47;;;;;;;34.20;18.05;;;2.40;99.90;;;;;;5036421;28;20091;-73
2022/12/09 02:30:22;;;;;;;36.80;17.73;;;2.40;99.90;;;;;;5034725;28;20844;-74
2022/12/09 02:32:57;;;;;;;30.92;17.17;;;2.40;99.90;;;;;;5036349;28;20025;-73
2022/12/09 02:35:33;;;;;;;30.17;16.98;;;2.40;99.90;;;;;;5036570;28;20060;-73
2022/12/09 02:38:13;;;;;;;32.97;18.15;;;2.30;99.90;;;;;;5034860;28;20473;-73
2022/12/09 02:40:49;;;;;;;27.63;16.38;;;2.40;99.90;;;;;;5035686;28;20095;-72
2022/12/09 02:43:20;;;;;;;32.35;18.13;;;2.40;99.90;;;;;;5035996;28;20473;-73
2022/12/09 02:45:47;;;;;;;32.20;17.17;;;2.40;99.90;;;;;;5034736;28;20029;-73
2022/12/09 02:48:16;;;;;;;32.00;17.67;;;2.40;99.90;;;;;;5034798;28;20390;-74
2022/12/09 02:50:44;;;;;;;23.75;16.42;;;2.40;99.90;;;;;;5034967;28;20029;-74
2022/12/09 02:53:13;;;;;;;30.63;17.98;;;2.40;99.90;;;;;;5035037;28;20025;-74
2022/12/09 02:55:45;;;;;;;26.77;16.83;;;2.40;99.90;;;;;;5042684;28;20045;-74
2022/12/09 02:58:11;;;;;;;27.75;17.63;;;2.50;99.90;;;;;;5034846;28;20096;-75
2022/12/09 03:00:38;;;;;;;33.05;16.65;;;2.40;99.90;;;;;;5035664;28;20515;-73
2022/12/09 03:03:08;;;;;;;31.48;16.42;;;2.50;99.90;;;;;;5034662;28;20053;-73
2022/12/09 03:05:48;;;;;;;27.35;15.75;;;2.50;99.90;;;;;;5025584;28;20026;-73
2022/12/09 03:08:26;;;;;;;25.80;15.68;;;2.50;99.90;;;;;;5030800;28;20171;-73
2022/12/09 03:11:05;;;;;;;29.92;16.25;;;2.50;99.90;;;;;;5034359;28;20034;-74
2022/12/09 03:13:45;;;;;;;27.55;16.45;;;2.50;99.90;;;;;;5021072;28;20018;-74
2022/12/09 03:16:22;;;;;;;22.88;14.45;;;2.50;99.90;;;;;;5034948;28;20037;-75
2022/12/09 03:18:55;;;;;;;27.40;15.82;;;2.50;99.90;;;;;;5029248;28;20033;-75
2022/12/09 03:21:25;;;;;;;24.45;15.55;;;2.50;99.90;;;;;;5028089;28;20033;-73
2022/12/09 03:23:55;;;;;;;21.92;14.82;;;2.50;99.90;;;;;;5034809;28;20101;-72
2022/12/09 03:26:23;;;;;;;22.55;14.82;;;2.60;99.90;;;;;;5034077;28;20025;-74
2022/12/09 03:28:50;;;;;;;22.80;15.18;;;2.40;99.90;;;;;;5034670;28;20033;-74
2022/12/09 03:31:20;;;;;;;22.40;13.95;;;2.40;99.90;;;;;;5034276;28;20050;-73
2022/12/09 03:33:50;;;;;;;25.80;14.50;;;2.40;99.90;;;;;;5033280;28;20112;-73
2022/12/09 03:36:17;;;;;;;18.90;12.95;;;2.40;99.90;;;;;;5034332;28;20035;-73
2022/12/09 03:38:46;;;;;;;23.40;14.98;;;2.30;99.90;;;;;;5034111;28;20477;-74
2022/12/09 03:41:24;;;;;;;19.85;12.93;;;2.20;99.90;;;;;;5033151;28;20025;-73
2022/12/09 03:43:54;;;;;;;19.58;13.88;;;2.20;99.90;;;;;;5034134;28;20021;-74
2022/12/09 03:46:21;;;;;;;23.00;13.73;;;2.20;99.90;;;;;;5034112;28;20025;-73
2022/12/09 03:48:47;;;;;;;23.08;14.05;;;2.10;99.90;;;;;;5033692;28;20268;-73
2022/12/09 03:51:29;;;;;;;19.75;12.57;;;2.20;99.90;;;;;;5034116;28;20028;-74
2022/12/09 03:54:04;;;;;;;22.63;13.32;;;2.10;99.90;;;;;;5033130;28;20030;-73
2022/12/09 03:56:40;;;;;;;21.85;13.82;;;2.10;99.90;;;;;;5033939;28;20029;-74
2022/12/09 03:59:09;;;;;;;24.02;14.60;;;2.10;99.90;;;;;;5032387;28;20125;-73
2022/12/09 04:01:36;;;;;;;21.77;13.32;;;2.10;99.90;;;;;;5027695;28;20029;-72
2022/12/09 04:04:02;;;;;;;28.38;14.63;;;2.10;99.90;;;;;;5033354;28;20036;-73
2022/12/09 04:06:27;;;;;;;22.75;14.70;;;2.10;99.90;;;;;;5032856;28;20026;-73
2022/12/09 04:08:53;;;;;;;21.25;13.93;;;2.10;99.90;;;;;;5032625;28;20445;-74
2022/12/09 04:11:20;;;;;;;21.38;14.32;;;2.10;99.90;;;;;;5033493;28;20021;-73
2022/12/09 04:13:45;;;;;;;20.45;13.32;;;2.10;99.90;;;;;;5033433;28;20017;-73
2022/12/09 04:16:11;;;;;;;22.95;14.35;;;2.10;99.90;;;;;;5032582;28;20064;-73
2022/12/09 04:18:37;;;;;;;22.88;14.50;;;2.10;99.90;;;;;;5033261;28;20061;-73
2022/12/09 04:21:07;;;;;;;23.27;14.40;;;2.10;99.90;;;;;;5033207;28;20030;-74
2022/12/09 04:23:33;;;;;;;;;;;2.10;99.90;;;;;;5033051;28;20032;-74
2022/12/09 04:25:58;;;;;;;23.13;13.35;;;2.10;99.90;;;;;;5026599;28;20278;-73
2022/12/09 04:28:24;;;;;;;25.08;14.15;;;2.10;99.90;;;;;;5025858;28;20382;-74
2022/12/09 04:30:49;;;;;;;28.30;15.57;;;2.10;99.90;;;;;;5032060;28;20045;-73
2022/12/09 04:33:15;;;;;;;24.05;15.02;;;2.10;99.90;;;;;;5033600;28;20025;-74
2022/12/09 04:35:40;;;;;;;21.40;13.38;;;2.10;99.90;;;;;;5033069;28;20042;-74
2022/12/09 04:38:06;;;;;;;21.67;13.57;;;2.10;99.90;;;;;;5032828;28;20060;-76
2022/12/09 04:40:32;;;;;;;23.08;14.40;;;2.10;99.90;;;;;;5033223;28;20033;-74
2022/12/09 04:42:57;;;;;;;25.38;14.60;;;2.10;99.90;;;;;;5033328;28;20492;-74
2022/12/09 04:45:23;;;;;;;31.27;14.65;;;2.00;99.90;;;;;;5032253;28;20029;-73
2022/12/09 04:47:49;;;;;;;20.98;12.75;;;1.90;99.90;;;;;;5032866;28;20104;-75
2022/12/09 04:50:15;;;;;;;20.48;13.60;;;1.80;99.90;;;;;;5032395;28;20020;-73
2022/12/09 04:52:42;;;;;;;17.13;12.07;;;1.70;99.90;;;;;;5032234;28;20116;-74
2022/12/09 04:55:07;;;;;;;20.45;12.60;;;1.60;99.90;;;;;;5038267;28;20074;-75
2022/12/09 04:57:33;;;;;;;24.20;13.00;;;1.50;99.90;;;;;;5031801;28;20029;-75
2022/12/09 04:59:58;;;;;;;19.85;12.55;;;1.40;99.90;;;;;;5032439;28;20044;-74
2022/12/09 05:02:24;;;;;;;20.77;13.02;;;1.30;99.90;;;;;;5032991;28;20021;-75
2022/12/09 05:04:50;;;;;;;25.45;14.13;;;1.20;99.90;;;;;;5031977;28;20030;-74
2022/12/09 05:07:16;;;;;;;21.83;12.18;;;1.10;99.90;;;;;;5032844;28;20021;-74
2022/12/09 05:09:42;;;;;;;18.30;11.95;;;1.10;99.90;;;;;;5032911;28;20057;-73
2022/12/09 05:12:08;;;;;;;19.30;12.18;;;1.00;99.90;;;;;;5030574;28;20151;-72
2022/12/09 05:14:34;;;;;;;19.10;11.98;;;0.90;99.90;;;;;;5032571;28;20057;-74
2022/12/09 05:17:00;;;;;;;21.95;12.23;;;0.90;99.90;;;;;;5032457;28;20425;-74
2022/12/09 05:19:26;;;;;;;23.17;12.30;;;0.80;99.90;;;;;;5032054;28;20068;-73
2022/12/09 05:21:51;;;;;;;21.08;12.38;;;0.80;99.90;;;;;;5032555;28;20052;-74
2022/12/09 05:24:17;;;;;;;27.83;13.60;;;0.70;99.90;;;;;;5032745;28;20029;-74
2022/12/09 05:26:42;;;;;;;22.45;12.90;;;1.60;99.90;;;;;;5032004;28;20040;-74
2022/12/09 05:29:10;;;;;;;20.65;12.00;;;0.70;99.90;;;;;;5026478;28;20085;-74
2022/12/09 05:31:35;;;;;;;23.20;12.10;;;0.70;99.90;;;;;;5012005;28;20084;-74
2022/12/09 05:34:01;;;;;;;27.48;13.65;;;0.60;99.90;;;;;;5013607;28;20029;-73
2022/12/09 05:36:27;;;;;;;22.88;13.75;;;0.60;99.90;;;;;;5016865;28;20018;-74
2022/12/09 05:38:53;;;;;;;28.80;15.35;;;0.60;99.90;;;;;;5028901;28;20386;-74
2022/12/09 05:41:20;;;;;;;24.85;14.18;;;0.60;99.90;;;;;;5030546;28;20041;-73
2022/12/09 05:43:46;;;;;;;26.48;14.25;;;0.50;99.90;;;;;;5030025;28;20022;-74
2022/12/09 05:46:12;;;;;;;26.15;13.98;;;0.50;99.90;;;;;;5030850;28;20025;-74
2022/12/09 05:48:38;;;;;;;21.77;13.27;;;0.50;99.90;;;;;;5030002;28;20032;-74
2022/12/09 05:51:10;;;;;;;24.45;13.90;;;0.50;99.90;;;;;;5029366;28;20112;-74
2022/12/09 05:53:35;;;;;;;26.73;13.85;;;0.40;99.90;;;;;;5029417;28;20044;-73
2022/12/09 05:56:01;;;;;;;24.05;13.70;;;0.40;99.90;;;;;;5030912;28;20025;-74
2022/12/09 05:58:30;;;;;;;22.05;12.75;;;0.40;99.90;;;;;;5030016;28;20638;-74
2022/12/09 06:01:01;;;;;;;20.73;12.80;;;0.30;99.90;;;;;;5030110;28;20482;-74
2022/12/09 06:03:27;;;;;;;26.08;14.32;;;0.30;99.90;;;;;;5031451;28;20022;-74
2022/12/09 06:05:52;;;;;;;24.25;14.35;;;0.30;99.90;;;;;;5030351;28;20083;-74
2022/12/09 06:08:18;;;;;;;26.52;13.40;;;0.20;99.90;;;;;;5029773;28;20057;-74
2022/12/09 06:10:43;;;;;;;29.90;14.05;;;0.20;99.90;;;;;;5029829;28;20032;-75
2022/12/09 06:13:09;;;;;;;23.30;13.13;;;0.20;99.90;;;;;;5027721;28;20025;-75
2022/12/09 06:15:35;;;;;;;25.75;14.27;;;0.10;99.90;;;;;;5029316;28;20654;-74
2022/12/09 06:18:01;;;;;;;25.80;14.18;;;0.10;99.90;;;;;;5030393;28;20061;-74
2022/12/09 06:20:29;;;;;;;23.02;13.10;;;0.10;99.90;;;;;;5029784;28;20034;-75
2022/12/09 06:22:55;;;;;;;28.63;15.43;;;0.90;99.90;;;;;;5029239;28;20026;-75
2022/12/09 06:25:20;;;;;;;27.67;15.27;;;0.10;99.90;;;;;;5030317;28;20030;-74
2022/12/09 06:27:46;;;;;;;28.63;14.18;;;0.00;99.90;;;;;;5030003;28;20119;-78
2022/12/09 06:30:11;;;;;;;28.27;14.25;;;0.10;99.90;;;;;;5030862;28;20053;-75
2022/12/09 06:32:37;;;;;;;25.60;12.35;;;0.00;99.90;;;;;;5032584;28;20100;-76
2022/12/09 06:35:03;;;;;;;22.52;12.75;;;0.00;99.90;;;;;;5034144;28;20523;-75
2022/12/09 06:37:28;;;;;;;22.45;12.77;;;-0.10;99.90;;;;;;5033143;28;20017;-74
2022/12/09 06:39:54;;;;;;;23.83;13.02;;;-0.10;99.90;;;;;;5033734;28;20479;-76
2022/12/09 06:42:20;;;;;;;21.30;12.43;;;-0.10;99.90;;;;;;5033078;28;20034;-75
2022/12/09 06:44:45;;;;;;;22.98;12.60;;;-0.20;99.90;;;;;;5033522;28;20052;-75
2022/12/09 06:47:11;;;;;;;22.52;12.80;;;-0.20;99.90;;;;;;5033597;28;20374;-74
2022/12/09 06:49:36;;;;;;;25.90;13.13;;;-0.20;99.90;;;;;;5033257;28;20561;-75
2022/12/09 06:52:02;;;;;;;26.02;14.07;;;-0.20;99.90;;;;;;5030705;28;20022;-73
2022/12/09 06:54:31;;;;;;;25.40;13.82;;;-0.30;99.90;;;;;;5037839;28;20039;-75
2022/12/09 06:56:56;;;;;;;27.08;13.57;;;-0.30;99.90;;;;;;5032714;28;20014;-74
2022/12/09 06:59:22;;;;;;;23.48;13.40;;;-0.30;99.90;;;;;;5026460;28;20513;-73
2022/12/09 07:01:47;;;;;;;25.92;13.88;;;-0.30;99.90;;;;;;5029340;28;20029;-75
2022/12/09 07:04:13;;;;;;;27.25;14.40;;;-0.30;99.90;;;;;;5029798;28;20474;-74
2022/12/09 07:06:44;;;;;;;26.15;14.50;;;-0.30;99.90;;;;;;5026969;28;20486;-74
2022/12/09 07:09:18;;;;;;;32.55;15.63;;;0.70;99.90;;;;;;5026528;28;20036;-74
2022/12/09 07:11:45;;;;;;;31.48;16.27;;;-0.30;99.90;;;;;;5028912;28;20033;-76
2022/12/09 07:14:13;;;;;;;30.77;15.68;;;-0.30;99.90;;;;;;5035482;28;20037;-76
2022/12/09 07:16:39;;;;;;;28.38;14.82;;;-0.30;99.90;;;;;;5035617;28;20068;-74
2022/12/09 07:19:05;;;;;;;30.10;16.52;;;-0.30;99.90;;;;;;5015496;28;20421;-77
2022/12/09 07:21:32;;;;;;;29.80;15.75;;;-0.30;99.90;;;;;;5029091;28;20029;-76
2022/12/09 07:23:59;;;;;;;29.80;15.82;;;-0.30;99.90;;;;;;5034763;28;20159;-76
2022/12/09 07:26:24;;;;;;;27.60;16.83;;;-0.30;99.90;;;;;;5035055;28;20037;-78
2022/12/09 07:28:50;;;;;;;27.52;14.73;;;-0.30;99.90;;;;;;5030361;28;20026;-78
2022/12/09 07:31:24;;;;;;;31.90;16.30;;;-0.30;99.90;;;;;;5029005;28;20041;-77
2022/12/09 07:33:51;;;;;;;37.58;18.08;;;-0.30;99.90;;;;;;5035026;28;20196;-77
2022/12/09 07:36:18;;;;;;;32.03;17.88;;;-0.30;99.90;;;;;;5038981;28;20056;-76
2022/12/09 07:38:43;;;;;;;34.13;16.88;;;-0.30;99.90;;;;;;5036046;28;20036;-75
2022/12/09 07:41:16;;;;;;;32.60;18.15;;;-0.30;99.90;;;;;;5022104;28;20427;-76
2022/12/09 07:43:44;;;;;;;33.20;17.50;;;-0.30;99.90;;;;;;5031893;28;20035;-77
2022/12/09 07:46:10;;;;;;;31.75;16.67;;;-0.30;99.90;;;;;;5021791;28;20037;-77
2022/12/09 07:48:35;;;;;;;34.58;16.77;;;-0.30;99.90;;;;;;5028741;28;20029;-76
2022/12/09 07:51:02;;;;;;;29.85;16.35;;;-0.20;99.90;;;;;;5040333;28;20036;-77
2022/12/09 07:53:32;;;;;;;32.83;15.75;;;-0.30;99.90;;;;;;5042078;28;20040;-77
2022/12/09 07:56:03;;;;;;;31.73;16.23;;;-0.30;99.90;;;;;;5033902;28;20470;-76
2022/12/09 07:58:29;;;;;;;33.08;16.85;;;-0.30;99.90;;;;;;5035604;28;20033;-77
2022/12/09 08:00:54;;;;;;;33.30;15.35;;;-0.30;99.90;;;;;;5034487;28;20367;-77
2022/12/09 08:03:20;;;;;;;34.70;17.27;;;-0.30;99.90;;;;;;5034724;28;20029;-78
2022/12/09 08:05:50;;;;;;;32.25;16.08;;;-0.30;99.90;;;;;;5035022;28;20508;-76
2022/12/09 08:08:15;;;;;;;31.17;16.92;;;-0.20;99.90;;;;;;5033806;28;20473;-77
2022/12/09 08:10:42;;;;;;;31.05;17.33;;;-0.20;99.90;;;;;;5034496;28;20033;-76
2022/12/09 08:13:08;;;;;;;31.92;17.50;;;-0.10;99.90;;;;;;5035089;28;20642;-76
2022/12/09 08:15:34;;;;;;;35.08;17.90;;;-0.10;99.90;;;;;;5035328;28;20436;-76
2022/12/09 08:18:00;;;;;;;31.13;16.88;;;-0.10;99.90;;;;;;5034737;28;20026;-76
2022/12/09 08:20:26;;;;;;;32.13;16.15;;;-0.20;99.90;;;;;;5036359;28;20103;-77
2022/12/09 08:22:52;;;;;;;35.35;15.70;;;-0.20;99.90;;;;;;5034162;28;20124;-77
2022/12/09 08:25:17;;;;;;;34.00;15.50;;;-0.20;99.90;;;;;;5036115;28;20036;-76
2022/12/09 08:27:46;;;;;;;23.50;13.15;;;-0.20;99.90;;;;;;5037908;28;20083;-77
2022/12/09 08:30:12;;;;;;;30.17;15.00;;;0.90;99.90;;;;;;5035271;28;20052;-76
2022/12/09 08:32:37;;;;;;;41.70;13.93;;;-0.20;99.90;;;;;;5037582;28;20022;-75
2022/12/09 08:35:04;;;;;;;61.20;13.18;;;-0.10;99.90;;;;;;5034814;28;20409;-77
2022/12/09 08:37:29;;;;;;;42.38;10.07;;;-0.20;99.90;;;;;;5035270;28;20061;-77
2022/12/09 08:39:55;;;;;;;35.88;9.63;;;-0.10;99.90;;;;;;5035814;28;20037;-76
2022/12/09 08:42:20;;;;;;;18.90;8.90;;;-0.10;99.90;;;;;;5035248;28;20384;-75
2022/12/09 08:44:49;;;;;;;14.48;10.07;;;-0.10;99.90;;;;;;5035433;28;20036;-77
2022/12/09 08:47:15;;;;;;;22.88;10.15;;;-0.10;99.90;;;;;;5035933;28;20041;-76
2022/12/09 08:49:40;;;;;;;32.50;10.95;;;-0.10;99.90;;;;;;5034440;28;20025;-77
2022/12/09 08:52:09;;;;;;;19.40;11.45;;;-0.10;99.90;;;;;;5033611;28;20029;-76
2022/12/09 08:54:34;;;;;;;26.00;12.38;;;-0.10;99.90;;;;;;5034740;28;20037;-76
2022/12/09 08:57:00;;;;;;;19.13;11.88;;;-0.10;99.90;;;;;;5034064;28;20029;-76
2022/12/09 08:59:26;;;;;;;18.83;11.60;;;0.00;99.90;;;;;;5034483;28;20034;-77
2022/12/09 09:01:51;;;;;;;19.63;12.57;;;0.00;99.90;;;;;;5034537;28;20075;-75
2022/12/09 09:04:19;;;;;;;24.83;12.50;;;0.00;99.90;;;;;;5034131;28;20377;-76
2022/12/09 09:06:47;;;;;;;21.10;12.57;;;0.00;99.90;;;;;;5034447;28;20018;-76
2022/12/09 09:09:16;;;;;;;23.52;12.75;;;0.10;99.90;;;;;;5033767;28;20036;-77
2022/12/09 09:11:42;;;;;;;28.17;10.55;;;0.10;99.90;;;;;;5033580;28;20029;-76
2022/12/09 09:14:09;;;;;;;15.65;11.13;;;0.10;99.90;;;;;;5034694;28;20022;-76
2022/12/09 09:16:38;;;;;;;22.83;14.73;;;0.10;99.90;;;;;;5036483;28;20022;-76
2022/12/09 09:19:09;;;;;;;21.17;14.15;;;0.30;99.90;;;;;;5033150;28;20043;-76
2022/12/09 09:21:34;;;;;;;;;;;0.20;99.90;;;;;;5033985;28;20037;-76
2022/12/09 09:24:01;;;;;;;16.70;12.27;;;0.20;99.90;;;;;;5034249;28;19909;-76
2022/12/09 09:26:32;;;;;;;18.45;10.80;;;0.20;99.90;;;;;;5021348;28;20029;-75
2022/12/09 09:28:57;;;;;;;20.63;12.43;;;0.30;99.90;;;;;;5034023;28;20466;-77
2022/12/09 09:31:24;;;;;;;24.35;14.63;;;0.40;99.90;;;;;;5033403;28;20048;-77
2022/12/09 09:33:51;;;;;;;30.77;16.58;;;0.40;99.90;;;;;;5031483;28;20092;-76
2022/12/09 09:36:20;;;;;;;36.47;19.60;;;0.40;99.90;;;;;;5024242;28;20028;-76
2022/12/09 09:38:47;;;;;;;38.10;20.08;;;0.50;99.90;;;;;;5030351;28;20029;-74
2022/12/09 09:41:46;;;;;;;38.30;19.73;;;0.50;99.90;;;;;;5023338;28;20104;-75
2022/12/09 09:44:39;;;;;;;49.88;22.75;;;0.70;99.90;;;;;;5027270;28;20377;-75
2022/12/09 09:47:15;;;;;;;43.92;20.10;;;0.80;99.90;;;;;;5026429;28;20026;-74
2022/12/09 09:49:52;;;;;;;42.90;20.92;;;0.90;99.90;;;;;;5030221;28;20044;-74
2022/12/09 09:52:21;;;;;;;41.10;19.42;;;1.00;99.90;;;;;;5032283;28;20028;-74
2022/12/09 09:54:47;;;;;;;44.28;21.48;;;1.00;99.90;;;;;;5030498;28;20080;-73
2022/12/09 09:57:33;;;;;;;43.97;20.95;;;1.10;99.90;;;;;;5032140;28;20025;-73
2022/12/09 10:00:24;;;;;;;46.55;21.77;;;1.10;99.90;;;;;;5028351;28;20431;-73
2022/12/09 10:03:01;;;;;;;49.10;23.67;;;1.20;99.90;;;;;;5019165;28;20041;-73
2022/12/09 10:05:41;;;;;;;50.40;24.35;;;1.30;99.90;;;;;;5035319;28;20037;-73
2022/12/09 10:08:44;;;;;;;52.97;24.75;;;1.30;99.90;;;;;;5023421;28;20021;-73
2022/12/09 10:11:19;;;;;;;48.65;24.88;;;1.40;99.90;;;;;;5035446;28;20033;-73
2022/12/09 10:14:12;;;;;;;52.35;25.25;;;1.40;99.90;;;;;;5035516;28;20018;-74
2022/12/09 10:16:56;;;;;;;45.83;24.40;;;1.50;99.90;;;;;;5033496;28;20025;-74
2022/12/09 10:19:34;;;;;;;55.30;25.80;;;1.50;99.90;;;;;;5034122;28;20378;-75
2022/12/09 10:22:12;;;;;;;51.75;25.52;;;1.70;99.90;;;;;;5030802;28;20026;-73
2022/12/09 10:24:47;;;;;;;49.10;24.73;;;1.70;99.90;;;;;;5031818;28;20413;-73
2022/12/09 10:27:37;;;;;;;51.65;26.20;;;1.80;99.90;;;;;;5031114;28;20049;-75
2022/12/09 10:30:05;;;;;;;;;;;1.90;99.90;;;;;;5023873;28;20498;-73
2022/12/09 10:32:35;;;;;;;55.17;25.88;;;2.00;99.90;;;;;;5031609;28;20316;-73
2022/12/09 10:35:10;;;;;;;;;;;2.00;99.90;;;;;;5033853;28;20064;-73
2022/12/09 10:37:37;;;;;;;49.85;25.05;;;2.20;99.90;;;;;;5032155;28;19925;-73
2022/12/09 10:40:09;;;;;;;54.05;26.05;;;2.20;99.90;;;;;;5019484;28;20080;-71
2022/12/09 10:45:29;;;;;;;43.80;23.75;;;2.30;99.90;;;;;;5024856;28;20046;-71
2022/12/09 10:47:55;;;;;;;44.90;23.92;;;2.30;99.90;;;;;;5035011;28;20458;-72
2022/12/09 10:50:31;;;;;;;47.85;25.27;;;2.40;99.90;;;;;;5033231;28;20113;-73
2022/12/09 10:53:03;;;;;;;49.70;25.58;;;2.40;99.90;;;;;;5026490;28;20025;-74
2022/12/09 10:55:36;;;;;;;52.28;25.33;;;2.40;99.90;;;;;;5032744;28;20063;-72
2022/12/09 10:58:29;;;;;;;51.78;26.52;;;2.50;99.90;;;;;;5032716;28;20040;-72
2022/12/09 11:01:00;;;;;;;48.50;24.15;;;2.50;99.90;;;;;;5032652;28;20046;-72
2022/12/09 11:03:28;;;;;;;47.58;24.08;;;2.50;99.90;;;;;;5035305;28;20021;-73
2022/12/09 11:06:16;;;;;;;47.85;25.15;;;2.50;99.90;;;;;;5034343;28;20029;-71
2022/12/09 11:08:53;;;;;;;44.65;23.42;;;2.60;99.90;;;;;;5027575;28;20030;-72
2022/12/09 11:11:37;;;;;;;49.92;24.55;;;2.60;99.90;;;;;;5028296;28;20088;-71
2022/12/09 11:14:02;;;;;;;49.65;24.10;;;2.60;99.90;;;;;;5033082;28;20028;-72
2022/12/09 11:16:29;;;;;;;50.75;25.55;;;2.60;99.90;;;;;;5033261;28;20025;-73
2022/12/09 11:18:55;;;;;;;60.75;26.40;;;2.60;99.90;;;;;;5026821;28;20025;-73
2022/12/09 11:21:30;;;;;;;51.38;25.13;;;2.60;99.90;;;;;;5034326;28;20473;-72
2022/12/09 11:23:56;;;;;;;55.40;25.98;;;2.60;99.90;;;;;;5034199;28;20025;-73
2022/12/09 11:26:31;;;;;;;55.40;27.02;;;2.60;99.90;;;;;;5034540;28;20162;-72
2022/12/09 11:29:12;;;;;;;56.80;25.55;;;2.60;99.90;;;;;;5027859;28;20036;-72
2022/12/09 11:31:39;;;;;;;54.00;25.60;;;2.60;99.90;;;;;;5027305;28;20124;-73
2022/12/09 11:34:19;;;;;;;43.28;22.40;;;2.60;99.90;;;;;;5034257;28;20026;-73
2022/12/09 11:36:48;;;;;;;56.13;24.52;;;2.60;99.90;;;;;;5019363;28;20117;-72
2022/12/09 11:39:33;;;;;;;56.57;27.93;;;2.60;99.90;;;;;;5022621;28;20038;-73
2022/12/09 11:42:13;;;;;;;49.70;25.48;;;2.70;99.90;;;;;;5039352;28;20025;-73
2022/12/09 11:44:47;;;;;;;51.40;24.48;;;2.70;99.90;;;;;;5033363;28;20021;-72
2022/12/09 11:47:30;;;;;;;42.53;23.05;;;2.70;99.90;;;;;;5031373;28;20040;-73
2022/12/09 11:50:16;;;;;;;45.03;24.23;;;2.70;99.90;;;;;;5030634;28;20105;-73
2022/12/09 11:52:42;;;;;;;50.05;24.42;;;2.70;99.90;;;;;;5030098;28;20396;-72
2022/12/09 11:55:22;;;;;;;51.28;24.90;;;2.60;99.90;;;;;;5033690;28;20462;-73
2022/12/09 11:57:47;;;;;;;49.45;25.63;;;2.70;99.90;;;;;;5033680;28;20030;-73
2022/12/09 12:00:29;;;;;;;46.42;24.70;;;2.70;99.90;;;;;;5019733;28;20534;-73
2022/12/09 12:03:28;;;;;;;41.45;23.23;;;2.70;99.90;;;;;;5016557;28;20561;-73
2022/12/09 12:05:55;;;;;;;45.63;23.65;;;2.70;99.90;;;;;;5033909;28;20021;-73
2022/12/09 12:08:32;;;;;;;51.72;25.10;;;2.70;99.90;;;;;;5032946;28;20091;-73
2022/12/09 12:11:07;;;;;;;46.70;22.75;;;2.60;99.90;;;;;;5033662;28;20026;-72
2022/12/09 12:13:42;;;;;;;48.05;25.08;;;2.70;99.90;;;;;;5033171;28;20091;-73
2022/12/09 12:16:30;;;;;;;48.63;24.02;;;2.70;99.90;;;;;;5033438;28;20405;-72
2022/12/09 12:19:26;;;;;;;47.58;21.95;;;2.70;99.90;;;;;;5030940;28;20036;-74
2022/12/09 12:22:01;;;;;;;51.47;25.63;;;2.70;99.90;;;;;;5032661;28;20017;-73
2022/12/09 12:24:48;;;;;;;48.17;24.20;;;2.70;99.90;;;;;;5024238;28;20029;-73
2022/12/09 12:27:35;;;;;;;51.17;24.73;;;2.70;99.90;;;;;;5031909;28;20053;-73
2022/12/09 12:30:09;;;;;;;46.28;23.38;;;2.70;99.90;;;;;;5032844;28;20057;-73
2022/12/09 12:32:35;;;;;;;50.03;24.33;;;2.60;99.90;;;;;;5033372;28;20041;-73
2022/12/09 12:35:23;;;;;;;51.03;24.52;;;2.60;99.90;;;;;;5032566;28;20041;-72
2022/12/09 12:38:08;;;;;;;48.85;24.45;;;2.70;99.90;;;;;;5033679;28;20025;-73
2022/12/09 12:40:48;;;;;;;53.75;26.42;;;2.70;99.90;;;;;;5033253;28;20029;-73
2022/12/09 12:46:16;;;;;;;47.90;23.45;;;2.80;99.90;;;;;;5032590;28;20091;-73
2022/12/09 12:49:16;;;;;;;46.35;23.48;;;2.70;99.90;;;;;;5033289;28;20030;-73
2022/12/09 12:51:50;;;;;;;48.83;24.85;;;2.60;99.90;;;;;;5033535;28;20025;-73
2022/12/09 12:54:35;;;;;;;53.97;26.15;;;2.60;99.90;;;;;;5032992;28;20028;-72
2022/12/09 12:57:05;;;;;;;48.72;24.30;;;2.60;99.90;;;;;;5032569;28;20033;-73